Chang Sheng — V3PK — position and weather

sailwx.info

Track history (hours):
 
Tides and Currents Weather Stations Pressure Air Temp Water Temp Dewpoint Dewpoint Depression Visibility Wind Speed Wind Dir Waves Ship Positions

Chang Sheng

Last reported at 2015-Jan-23 06:16 UTC. Time now 2015-Jan-27 03:29 UTC.
Position N 34°01' E 130°51'.

Length 86 m; draft 5.2 m.

Type: Cargo ship. MMSI: 312161000.

Date/timePositionNaut miles runAvg speedWind from/ knotsBaromVisibWave heightAir tempDewpointWater temp
2015-Jan-23 06:16N 34°01' E 130°51'202 6.5
2015-Jan-21 23:22N 34°35' E 134°52'812.7
2015-Jan-21 22:47N 34°37' E 135°01'011.0
2015-Jan-21 22:46N 34°37' E 135°01'313.4
2015-Jan-21 22:33N 34°36' E 135°04'9 9.2
2015-Jan-21 21:32N 34°27' E 135°03'9 9.4
2015-Jan-21 20:33N 34°18' E 134°59'8 8.2
2015-Jan-21 19:33N 34°10' E 134°60'9 8.5
2015-Jan-21 18:30N 34°01' E 135°00'226 8.0
2015-Jan-20 14:11N 34°54' E 139°26'6 9.7
2015-Jan-20 13:32N 34°59' E 139°32'1010.1
2015-Jan-20 12:33N 35°06' E 139°40'1010.1
2015-Jan-20 11:33N 35°14' E 139°46'1010.0
2015-Jan-20 10:33N 35°24' E 139°43'7 7.1
2015-Jan-20 09:33N 35°30' E 139°46'1 0.9
2015-Jan-20 08:28N 35°31' E 139°45'0 0.0
2015-Jan-20 07:22N 35°31' E 139°45'0 0.0
2015-Jan-20 06:31N 35°31' E 139°45'0 0.0
2015-Jan-20 05:19N 35°31' E 139°45'0 0.0
2015-Jan-20 04:28N 35°31' E 139°45'0 0.0
2015-Jan-20 03:25N 35°31' E 139°45'0 0.0
2015-Jan-20 02:27N 35°31' E 139°45'0 0.0
2015-Jan-20 01:32N 35°31' E 139°45'0 0.0
2015-Jan-20 00:31N 35°31' E 139°45'0 0.0
2015-Jan-19 23:31N 35°31' E 139°45'0 0.0
2015-Jan-19 22:31N 35°31' E 139°45'0 0.0
2015-Jan-19 21:31N 35°31' E 139°45'0 0.0
2015-Jan-19 20:31N 35°31' E 139°45'0 0.0
2015-Jan-19 19:31N 35°31' E 139°45'0 0.0
2015-Jan-19 18:31N 35°31' E 139°45'0 0.0
2015-Jan-19 17:31N 35°31' E 139°45'0 0.0
2015-Jan-19 16:31N 35°31' E 139°45'0 0.0
2015-Jan-19 15:31N 35°31' E 139°45'0 0.0
2015-Jan-19 14:31N 35°31' E 139°45'0 0.0
2015-Jan-19 13:31N 35°31' E 139°45'0 0.0
2015-Jan-19 12:31N 35°31' E 139°45'0 0.0
2015-Jan-19 11:31N 35°31' E 139°45'0 0.0
2015-Jan-19 10:31N 35°31' E 139°45'0 0.0
2015-Jan-19 09:31N 35°31' E 139°45'0 0.0
2015-Jan-19 08:31N 35°31' E 139°45'0 0.0
2015-Jan-19 07:28N 35°31' E 139°45'0 0.0
2015-Jan-19 06:31N 35°31' E 139°45'0 0.0
2015-Jan-19 05:31N 35°31' E 139°45'0 0.0
2015-Jan-19 04:28N 35°31' E 139°45'0 0.0
2015-Jan-19 03:28N 35°31' E 139°45'0 0.0
2015-Jan-19 02:28N 35°31' E 139°45'0 0.0
2015-Jan-19 01:31N 35°31' E 139°45'0 0.0
2015-Jan-19 00:31N 35°31' E 139°45'0 0.0
2015-Jan-18 23:31N 35°31' E 139°45'0 0.0
2015-Jan-18 22:31N 35°31' E 139°45'0 0.0
2015-Jan-18 21:33N 35°31' E 139°45'3 2.9
2015-Jan-18 20:33N 35°29' E 139°42'3 2.6
2015-Jan-18 19:31N 35°26' E 139°43'0 0.0
2015-Jan-18 18:31N 35°26' E 139°43'0 0.0
2015-Jan-18 17:31N 35°26' E 139°43'0 0.0
2015-Jan-18 16:31N 35°26' E 139°43'0 0.0
2015-Jan-18 15:31N 35°26' E 139°43'0 0.0
2015-Jan-18 14:34N 35°26' E 139°43'0 0.0
2015-Jan-18 13:31N 35°26' E 139°43'0 0.0
2015-Jan-18 12:31N 35°26' E 139°43'0 0.0
2015-Jan-18 11:31N 35°26' E 139°43'0 0.0
2015-Jan-18 10:31N 35°26' E 139°43'0 0.0
2015-Jan-18 09:31N 35°26' E 139°43'0 0.1
2015-Jan-18 08:31N 35°26' E 139°43'0 0.0
2015-Jan-18 07:31N 35°26' E 139°43'0 0.0
2015-Jan-18 06:28N 35°26' E 139°43'0 0.0
2015-Jan-18 05:31N 35°26' E 139°43'0 0.0
2015-Jan-18 04:31N 35°26' E 139°43'0 0.0
2015-Jan-18 03:31N 35°26' E 139°43'0 0.0
2015-Jan-18 02:31N 35°26' E 139°43'0 0.0
2015-Jan-18 01:31N 35°26' E 139°43'0 0.1
2015-Jan-18 00:31N 35°26' E 139°43'0 0.0
2015-Jan-17 23:31N 35°26' E 139°43'0 0.0
2015-Jan-17 22:31N 35°26' E 139°43'0 0.0
2015-Jan-17 21:31N 35°26' E 139°43'0 0.0
2015-Jan-17 20:28N 35°26' E 139°43'0 0.0
2015-Jan-17 19:31N 35°26' E 139°43'0 0.0
2015-Jan-17 18:31N 35°26' E 139°43'0 0.0
2015-Jan-17 17:31N 35°26' E 139°43'0 0.0
2015-Jan-17 16:31N 35°26' E 139°43'0 0.0
2015-Jan-17 15:31N 35°26' E 139°43'0 0.0
2015-Jan-17 14:31N 35°26' E 139°43'0 0.0
2015-Jan-17 13:34N 35°26' E 139°43'0 0.0
2015-Jan-17 12:31N 35°26' E 139°43'0 0.0
2015-Jan-17 11:31N 35°26' E 139°43'0 0.1
2015-Jan-17 10:33N 35°26' E 139°43'7 6.7
2015-Jan-17 09:33N 35°29' E 139°51'9 9.4
2015-Jan-17 08:33N 35°33' E 140°01'1 0.0
2015-Jan-15 21:15N 35°33' E 140°02'15 8.7
2015-Jan-15 19:33N 35°25' E 139°47'2 2.0
2015-Jan-15 18:18N 35°23' E 139°45'0 0.0
2015-Jan-15 17:33N 35°23' E 139°45'0 0.0
2015-Jan-15 16:30N 35°23' E 139°45'0 0.0
2015-Jan-15 15:30N 35°23' E 139°45'0 0.0
2015-Jan-15 14:29N 35°23' E 139°45'0 0.0
2015-Jan-15 13:32N 35°23' E 139°45'0 0.0
2015-Jan-15 12:33N 35°23' E 139°45'0 0.0
2015-Jan-15 11:33N 35°23' E 139°45'0 0.0
2015-Jan-15 10:31N 35°23' E 139°45'0 0.0
2015-Jan-15 09:32N 35°23' E 139°45'0 0.0
2015-Jan-15 08:32N 35°23' E 139°45'0 0.0
2015-Jan-15 07:33N 35°23' E 139°45'0 0.0
2015-Jan-15 06:33N 35°23' E 139°45'0 0.0
2015-Jan-15 05:27N 35°23' E 139°45'0 0.0
2015-Jan-15 04:33N 35°23' E 139°45'0 0.0
2015-Jan-15 03:33N 35°23' E 139°45'0 0.0
2015-Jan-15 02:30N 35°23' E 139°45'0 0.0
2015-Jan-15 01:30N 35°23' E 139°45'0 0.0
2015-Jan-15 00:30N 35°23' E 139°45'0 0.0
2015-Jan-14 22:24N 35°23' E 139°45'0 0.0
2015-Jan-14 21:30N 35°23' E 139°45'0 0.0
2015-Jan-14 19:24N 35°23' E 139°45'0 0.0
2015-Jan-14 18:30N 35°23' E 139°45'0 0.1
2015-Jan-14 17:33N 35°23' E 139°45'0 0.0
2015-Jan-14 16:30N 35°23' E 139°45'0 0.0
2015-Jan-14 15:30N 35°23' E 139°45'0 0.0
2015-Jan-14 14:33N 35°23' E 139°45'0 0.0
2015-Jan-14 13:33N 35°23' E 139°45'0 0.0
2015-Jan-14 12:33N 35°23' E 139°45'0 0.0
2015-Jan-14 11:33N 35°23' E 139°45'0 0.1
2015-Jan-14 10:33N 35°23' E 139°45'0 0.0
2015-Jan-14 09:33N 35°23' E 139°45'0 0.0
2015-Jan-14 08:33N 35°23' E 139°45'0 0.0
2015-Jan-14 07:33N 35°23' E 139°45'0 0.0
2015-Jan-14 06:30N 35°23' E 139°45'0 0.0
2015-Jan-14 05:33N 35°23' E 139°45'0 0.0
2015-Jan-14 04:33N 35°23' E 139°45'0 0.0
2015-Jan-14 03:33N 35°23' E 139°45'0 0.0
2015-Jan-14 02:33N 35°23' E 139°45'0 0.0
2015-Jan-14 01:33N 35°23' E 139°45'0 0.1
2015-Jan-14 00:33N 35°23' E 139°45'0 0.0
2015-Jan-13 23:30N 35°23' E 139°45'0 0.0
2015-Jan-13 22:33N 35°23' E 139°45'0 0.0
2015-Jan-13 21:33N 35°23' E 139°45'0 0.1
2015-Jan-13 20:33N 35°23' E 139°45'0 0.0
2015-Jan-13 19:33N 35°23' E 139°45'0 0.0
2015-Jan-13 18:33N 35°23' E 139°45'0 0.0
2015-Jan-13 17:33N 35°23' E 139°45'0 0.1
2015-Jan-13 16:33N 35°23' E 139°45'0 0.0
2015-Jan-13 15:33N 35°23' E 139°45'0 0.0
2015-Jan-13 14:33N 35°23' E 139°45'0 0.0
2015-Jan-13 13:33N 35°23' E 139°45'0 0.0
2015-Jan-13 12:33N 35°23' E 139°45'0 0.0
2015-Jan-13 11:33N 35°23' E 139°45'0 0.0
2015-Jan-13 10:33N 35°23' E 139°45'0 0.0
2015-Jan-13 09:33N 35°23' E 139°45'0 0.0
2015-Jan-13 08:33N 35°23' E 139°45'0 0.0
2015-Jan-13 07:33N 35°23' E 139°45'0 0.1
2015-Jan-13 06:33N 35°23' E 139°45'  
Track history (hours):
 
Tides and Currents Weather Stations Pressure Air Temp Water Temp Dewpoint Dewpoint Depression Visibility Wind Speed Wind Dir Waves Ship Positions

Chang Sheng

Last reported at 2015-Jan-23 06:16 UTC. Time now 2015-Jan-27 03:29 UTC.
Position N 34°01' E 130°51'.

Length 86 m; draft 5.2 m.

Type: Cargo ship. MMSI: 312161000.

Date/timePositionNaut miles runAvg speedWind from/ knotsBaromVisibWave heightAir tempDewpointWater temp
2015-Jan-23 06:16N 34°01' E 130°51'202 6.5
2015-Jan-21 23:22N 34°35' E 134°52'812.7
2015-Jan-21 22:47N 34°37' E 135°01'011.0
2015-Jan-21 22:46N 34°37' E 135°01'313.4
2015-Jan-21 22:33N 34°36' E 135°04'9 9.2
2015-Jan-21 21:32N 34°27' E 135°03'9 9.4
2015-Jan-21 20:33N 34°18' E 134°59'8 8.2
2015-Jan-21 19:33N 34°10' E 134°60'9 8.5
2015-Jan-21 18:30N 34°01' E 135°00'226 8.0
2015-Jan-20 14:11N 34°54' E 139°26'6 9.7
2015-Jan-20 13:32N 34°59' E 139°32'1010.1
2015-Jan-20 12:33N 35°06' E 139°40'1010.1
2015-Jan-20 11:33N 35°14' E 139°46'1010.0
2015-Jan-20 10:33N 35°24' E 139°43'7 7.1
2015-Jan-20 09:33N 35°30' E 139°46'1 0.9
2015-Jan-20 08:28N 35°31' E 139°45'0 0.0
2015-Jan-20 07:22N 35°31' E 139°45'0 0.0
2015-Jan-20 06:31N 35°31' E 139°45'0 0.0
2015-Jan-20 05:19N 35°31' E 139°45'0 0.0
2015-Jan-20 04:28N 35°31' E 139°45'0 0.0
2015-Jan-20 03:25N 35°31' E 139°45'0 0.0
2015-Jan-20 02:27N 35°31' E 139°45'0 0.0
2015-Jan-20 01:32N 35°31' E 139°45'0 0.0
2015-Jan-20 00:31N 35°31' E 139°45'0 0.0
2015-Jan-19 23:31N 35°31' E 139°45'0 0.0
2015-Jan-19 22:31N 35°31' E 139°45'0 0.0
2015-Jan-19 21:31N 35°31' E 139°45'0 0.0
2015-Jan-19 20:31N 35°31' E 139°45'0 0.0
2015-Jan-19 19:31N 35°31' E 139°45'0 0.0
2015-Jan-19 18:31N 35°31' E 139°45'0 0.0
2015-Jan-19 17:31N 35°31' E 139°45'0 0.0
2015-Jan-19 16:31N 35°31' E 139°45'0 0.0
2015-Jan-19 15:31N 35°31' E 139°45'0 0.0
2015-Jan-19 14:31N 35°31' E 139°45'0 0.0
2015-Jan-19 13:31N 35°31' E 139°45'0 0.0
2015-Jan-19 12:31N 35°31' E 139°45'0 0.0
2015-Jan-19 11:31N 35°31' E 139°45'0 0.0
2015-Jan-19 10:31N 35°31' E 139°45'0 0.0
2015-Jan-19 09:31N 35°31' E 139°45'0 0.0
2015-Jan-19 08:31N 35°31' E 139°45'0 0.0
2015-Jan-19 07:28N 35°31' E 139°45'0 0.0
2015-Jan-19 06:31N 35°31' E 139°45'0 0.0
2015-Jan-19 05:31N 35°31' E 139°45'0 0.0
2015-Jan-19 04:28N 35°31' E 139°45'0 0.0
2015-Jan-19 03:28N 35°31' E 139°45'0 0.0
2015-Jan-19 02:28N 35°31' E 139°45'0 0.0
2015-Jan-19 01:31N 35°31' E 139°45'0 0.0
2015-Jan-19 00:31N 35°31' E 139°45'0 0.0
2015-Jan-18 23:31N 35°31' E 139°45'0 0.0
2015-Jan-18 22:31N 35°31' E 139°45'0 0.0
2015-Jan-18 21:33N 35°31' E 139°45'3 2.9
2015-Jan-18 20:33N 35°29' E 139°42'3 2.6
2015-Jan-18 19:31N 35°26' E 139°43'0 0.0
2015-Jan-18 18:31N 35°26' E 139°43'0 0.0
2015-Jan-18 17:31N 35°26' E 139°43'0 0.0
2015-Jan-18 16:31N 35°26' E 139°43'0 0.0
2015-Jan-18 15:31N 35°26' E 139°43'0 0.0
2015-Jan-18 14:34N 35°26' E 139°43'0 0.0
2015-Jan-18 13:31N 35°26' E 139°43'0 0.0
2015-Jan-18 12:31N 35°26' E 139°43'0 0.0
2015-Jan-18 11:31N 35°26' E 139°43'0 0.0
2015-Jan-18 10:31N 35°26' E 139°43'0 0.0
2015-Jan-18 09:31N 35°26' E 139°43'0 0.1
2015-Jan-18 08:31N 35°26' E 139°43'0 0.0
2015-Jan-18 07:31N 35°26' E 139°43'0 0.0
2015-Jan-18 06:28N 35°26' E 139°43'0 0.0
2015-Jan-18 05:31N 35°26' E 139°43'0 0.0
2015-Jan-18 04:31N 35°26' E 139°43'0 0.0
2015-Jan-18 03:31N 35°26' E 139°43'0 0.0
2015-Jan-18 02:31N 35°26' E 139°43'0 0.0
2015-Jan-18 01:31N 35°26' E 139°43'0 0.1
2015-Jan-18 00:31N 35°26' E 139°43'0 0.0
2015-Jan-17 23:31N 35°26' E 139°43'0 0.0
2015-Jan-17 22:31N 35°26' E 139°43'0 0.0
2015-Jan-17 21:31N 35°26' E 139°43'0 0.0
2015-Jan-17 20:28N 35°26' E 139°43'0 0.0
2015-Jan-17 19:31N 35°26' E 139°43'0 0.0
2015-Jan-17 18:31N 35°26' E 139°43'0 0.0
2015-Jan-17 17:31N 35°26' E 139°43'0 0.0
2015-Jan-17 16:31N 35°26' E 139°43'0 0.0
2015-Jan-17 15:31N 35°26' E 139°43'0 0.0
2015-Jan-17 14:31N 35°26' E 139°43'0 0.0
2015-Jan-17 13:34N 35°26' E 139°43'0 0.0
2015-Jan-17 12:31N 35°26' E 139°43'0 0.0
2015-Jan-17 11:31N 35°26' E 139°43'0 0.1
2015-Jan-17 10:33N 35°26' E 139°43'7 6.7
2015-Jan-17 09:33N 35°29' E 139°51'9 9.4
2015-Jan-17 08:33N 35°33' E 140°01'1 0.0
2015-Jan-15 21:15N 35°33' E 140°02'15 8.7
2015-Jan-15 19:33N 35°25' E 139°47'2 2.0
2015-Jan-15 18:18N 35°23' E 139°45'0 0.0
2015-Jan-15 17:33N 35°23' E 139°45'0 0.0
2015-Jan-15 16:30N 35°23' E 139°45'0 0.0
2015-Jan-15 15:30N 35°23' E 139°45'0 0.0
2015-Jan-15 14:29N 35°23' E 139°45'0 0.0
2015-Jan-15 13:32N 35°23' E 139°45'0 0.0
2015-Jan-15 12:33N 35°23' E 139°45'0 0.0
2015-Jan-15 11:33N 35°23' E 139°45'0 0.0
2015-Jan-15 10:31N 35°23' E 139°45'0 0.0
2015-Jan-15 09:32N 35°23' E 139°45'0 0.0
2015-Jan-15 08:32N 35°23' E 139°45'0 0.0
2015-Jan-15 07:33N 35°23' E 139°45'0 0.0
2015-Jan-15 06:33N 35°23' E 139°45'0 0.0
2015-Jan-15 05:27N 35°23' E 139°45'0 0.0
2015-Jan-15 04:33N 35°23' E 139°45'0 0.0
2015-Jan-15 03:33N 35°23' E 139°45'0 0.0
2015-Jan-15 02:30N 35°23' E 139°45'0 0.0
2015-Jan-15 01:30N 35°23' E 139°45'0 0.0
2015-Jan-15 00:30N 35°23' E 139°45'0 0.0
2015-Jan-14 22:24N 35°23' E 139°45'0 0.0
2015-Jan-14 21:30N 35°23' E 139°45'0 0.0
2015-Jan-14 19:24N 35°23' E 139°45'0 0.0
2015-Jan-14 18:30N 35°23' E 139°45'0 0.1
2015-Jan-14 17:33N 35°23' E 139°45'0 0.0
2015-Jan-14 16:30N 35°23' E 139°45'0 0.0
2015-Jan-14 15:30N 35°23' E 139°45'0 0.0
2015-Jan-14 14:33N 35°23' E 139°45'0 0.0
2015-Jan-14 13:33N 35°23' E 139°45'0 0.0
2015-Jan-14 12:33N 35°23' E 139°45'0 0.0
2015-Jan-14 11:33N 35°23' E 139°45'0 0.1
2015-Jan-14 10:33N 35°23' E 139°45'0 0.0
2015-Jan-14 09:33N 35°23' E 139°45'0 0.0
2015-Jan-14 08:33N 35°23' E 139°45'0 0.0
2015-Jan-14 07:33N 35°23' E 139°45'0 0.0
2015-Jan-14 06:30N 35°23' E 139°45'0 0.0
2015-Jan-14 05:33N 35°23' E 139°45'0 0.0
2015-Jan-14 04:33N 35°23' E 139°45'0 0.0
2015-Jan-14 03:33N 35°23' E 139°45'0 0.0
2015-Jan-14 02:33N 35°23' E 139°45'0 0.0
2015-Jan-14 01:33N 35°23' E 139°45'0 0.1
2015-Jan-14 00:33N 35°23' E 139°45'0 0.0
2015-Jan-13 23:30N 35°23' E 139°45'0 0.0
2015-Jan-13 22:33N 35°23' E 139°45'0 0.0
2015-Jan-13 21:33N 35°23' E 139°45'0 0.1
2015-Jan-13 20:33N 35°23' E 139°45'0 0.0
2015-Jan-13 19:33N 35°23' E 139°45'0 0.0
2015-Jan-13 18:33N 35°23' E 139°45'0 0.0
2015-Jan-13 17:33N 35°23' E 139°45'0 0.1
2015-Jan-13 16:33N 35°23' E 139°45'0 0.0
2015-Jan-13 15:33N 35°23' E 139°45'0 0.0
2015-Jan-13 14:33N 35°23' E 139°45'0 0.0
2015-Jan-13 13:33N 35°23' E 139°45'0 0.0
2015-Jan-13 12:33N 35°23' E 139°45'0 0.0
2015-Jan-13 11:33N 35°23' E 139°45'0 0.0
2015-Jan-13 10:33N 35°23' E 139°45'0 0.0
2015-Jan-13 09:33N 35°23' E 139°45'0 0.0
2015-Jan-13 08:33N 35°23' E 139°45'0 0.0
2015-Jan-13 07:33N 35°23' E 139°45'0 0.1
2015-Jan-13 06:33N 35°23' E 139°45'  

Dump ship's entire track history